Time;durP1;ratioP1;P1;durP2;ratioP2;P2;SDS_P1;SDS_P2;PMS_P1;PMS_P2;Temp;Humidity;BMP_temperature;BMP_pressure;BME280_temperature;BME280_humidity;BME280_pressure;Samples;Min_cycle;Max_cycle;Signal;HPM_P1;HPM_P2
2022/07/23 00:00:56;;;;;;;2.55;1.30;;;23.20;61.60;;;;;;10368683;28;20462;-62
2022/07/23 00:05:57;;;;;;;2.42;1.25;;;23.20;61.60;;;;;;10368999;28;20034;-61
2022/07/23 00:10:58;;;;;;;2.47;1.40;;;23.10;61.60;;;;;;10354609;28;20480;-61
2022/07/23 00:15:58;;;;;;;7.45;1.25;;;23.10;61.60;;;;;;10402883;28;20112;-61
2022/07/23 00:20:59;;;;;;;3.58;1.52;;;23.10;61.60;;;;;;10392824;28;20303;-61
2022/07/23 00:26:00;;;;;;;1.48;1.13;;;23.10;61.60;;;;;;10368237;28;20037;-62
2022/07/23 00:31:01;;;;;;;2.72;1.33;;;23.10;61.60;;;;;;10392126;28;20034;-61
2022/07/23 00:36:02;;;;;;;1.23;1.00;;;23.10;61.60;;;;;;10373282;28;20037;-61
2022/07/23 00:41:03;;;;;;;1.48;0.93;;;23.10;61.60;;;;;;10404390;28;20057;-61
2022/07/23 00:46:04;;;;;;;2.28;1.60;;;23.10;61.60;;;;;;10379967;28;20052;-62
2022/07/23 00:51:05;;;;;;;3.72;1.08;;;23.10;61.60;;;;;;10379446;28;20452;-62
2022/07/23 00:56:06;;;;;;;1.90;1.00;;;23.10;61.70;;;;;;10405858;28;20058;-61
2022/07/23 01:01:07;;;;;;;1.85;1.17;;;23.10;61.70;;;;;;10407454;28;20075;-62
2022/07/23 01:06:09;;;;;;;2.22;1.10;;;23.10;61.70;;;;;;10373176;28;20657;-62
2022/07/23 01:11:10;;;;;;;2.10;1.15;;;23.10;61.70;;;;;;10378479;28;20068;-61
2022/07/23 01:16:11;;;;;;;1.70;1.00;;;23.10;61.80;;;;;;10364724;28;20375;-61
2022/07/23 01:21:15;;;;;;;1.42;1.10;;;23.10;62.30;;;;;;10362769;28;20777;-61
2022/07/23 01:26:17;;;;;;;1.17;0.85;;;23.00;61.70;;;;;;10365495;28;20030;-61
2022/07/23 01:31:18;;;;;;;1.38;1.10;;;23.00;61.70;;;;;;10385271;28;20092;-62
2022/07/23 01:36:19;;;;;;;1.13;0.90;;;23.00;61.70;;;;;;10365559;28;20112;-62
2022/07/23 01:41:20;;;;;;;1.70;1.10;;;23.00;61.70;;;;;;10327934;28;1058531;-61
2022/07/23 01:46:21;;;;;;;1.90;0.90;;;23.00;61.70;;;;;;10367048;28;20787;-62
2022/07/23 01:51:22;;;;;;;2.00;1.15;;;23.00;61.70;;;;;;10365809;28;20046;-63
2022/07/23 01:56:22;;;;;;;1.15;0.80;;;23.00;61.70;;;;;;10379158;28;20030;-62
2022/07/23 02:01:23;;;;;;;0.80;0.68;;;23.00;61.80;;;;;;10365726;28;20018;-62
2022/07/23 02:06:24;;;;;;;2.53;1.10;;;23.00;61.80;;;;;;10366914;28;20034;-61
2022/07/23 02:11:25;;;;;;;1.67;1.02;;;23.00;61.80;;;;;;10365412;28;20109;-61
2022/07/23 02:16:25;;;;;;;2.50;1.38;;;23.00;61.80;;;;;;10366693;28;20129;-62
2022/07/23 02:21:26;;;;;;;1.17;0.82;;;23.00;61.80;;;;;;10355149;28;20034;-62
2022/07/23 02:26:27;;;;;;;1.98;1.17;;;23.00;61.80;;;;;;10419447;28;20476;-62
2022/07/23 02:31:29;;;;;;;2.58;1.00;;;22.90;61.70;;;;;;10372089;28;20025;-61
2022/07/23 02:36:30;;;;;;;1.67;1.05;;;22.90;62.30;;;;;;10385748;28;20034;-61
2022/07/23 02:41:31;;;;;;;0.90;0.80;;;22.90;61.70;;;;;;10371088;28;20042;-62
2022/07/23 02:46:31;;;;;;;1.60;1.30;;;22.90;61.80;;;;;;10404969;28;20029;-62
2022/07/23 02:51:32;;;;;;;1.88;1.00;;;22.90;61.80;;;;;;10395364;28;20030;-61
2022/07/23 02:56:33;;;;;;;3.30;1.27;;;22.90;61.80;;;;;;10371757;28;20393;-62
2022/07/23 03:01:34;;;;;;;1.52;0.82;;;22.90;61.80;;;;;;10385111;28;20168;-62
2022/07/23 03:06:35;;;;;;;1.00;0.65;;;22.90;61.80;;;;;;10368088;28;20500;-62
2022/07/23 03:11:35;;;;;;;1.08;0.73;;;22.90;61.80;;;;;;10354661;28;20026;-61
2022/07/23 03:16:36;;;;;;;2.15;0.98;;;22.90;61.80;;;;;;10370758;28;20030;-61
2022/07/23 03:21:40;;;;;;;1.55;1.00;;;22.90;61.80;;;;;;10381777;28;20576;-61
2022/07/23 03:26:40;;;;;;;1.50;0.90;;;22.90;61.80;;;;;;10368797;28;20033;-62
2022/07/23 03:31:41;;;;;;;1.65;1.00;;;22.90;61.80;;;;;;10392606;28;20534;-61
2022/07/23 03:36:42;;;;;;;1.45;1.00;;;22.80;61.80;;;;;;10385354;28;20025;-61
2022/07/23 03:41:42;;;;;;;1.48;0.85;;;22.90;61.80;;;;;;10386297;28;20128;-61
2022/07/23 03:46:43;;;;;;;1.45;1.10;;;22.90;61.80;;;;;;10381278;28;20033;-61
2022/07/23 03:51:44;;;;;;;1.42;1.02;;;22.80;61.70;;;;;;10391573;28;20072;-61
2022/07/23 03:56:45;;;;;;;1.45;0.93;;;22.80;61.80;;;;;;10387775;28;20029;-61
2022/07/23 04:01:46;;;;;;;1.23;0.65;;;22.80;61.70;;;;;;10385872;28;20032;-61
2022/07/23 04:06:47;;;;;;;1.95;1.27;;;22.80;61.70;;;;;;10384849;28;20030;-62
2022/07/23 04:11:47;;;;;;;1.00;0.80;;;22.80;61.70;;;;;;10388986;28;20032;-61
2022/07/23 04:16:48;;;;;;;1.08;0.80;;;22.80;61.80;;;;;;10368260;28;20030;-62
2022/07/23 04:21:49;;;;;;;1.00;0.88;;;22.80;61.80;;;;;;10394532;28;20105;-61
2022/07/23 04:26:49;;;;;;;1.27;1.17;;;22.80;61.80;;;;;;10373182;28;20087;-62
2022/07/23 04:31:50;;;;;;;1.92;0.88;;;22.80;61.80;;;;;;10383238;28;20041;-62
2022/07/23 04:36:51;;;;;;;2.05;1.05;;;22.80;61.80;;;;;;10405382;28;20030;-61
2022/07/23 04:41:52;;;;;;;1.13;0.82;;;22.80;62.40;;;;;;10367427;28;20126;-61
2022/07/23 04:46:52;;;;;;;1.02;0.82;;;22.80;61.80;;;;;;10359628;28;20125;-61
2022/07/23 04:51:53;;;;;;;0.88;0.70;;;22.70;61.80;;;;;;10367391;28;20053;-61
2022/07/23 04:56:54;;;;;;;1.05;0.90;;;22.80;61.90;;;;;;10379883;28;20119;-61
2022/07/23 05:01:54;;;;;;;3.35;3.05;;;22.70;61.80;;;;;;10380526;28;20685;-61
2022/07/23 05:06:55;;;;;;;14.93;2.35;;;22.80;62.80;;;;;;10376980;28;20030;-67
2022/07/23 05:11:56;;;;;;;10.18;5.07;;;22.80;62.60;;;;;;10371977;28;20130;-65
2022/07/23 05:16:56;;;;;;;7.30;3.42;;;22.90;63.30;;;;;;10374307;28;20026;-64
2022/07/23 05:21:57;;;;;;;9.30;3.80;;;23.00;64.00;;;;;;10380557;28;20037;-62
2022/07/23 05:26:58;;;;;;;5.47;3.67;;;23.00;64.30;;;;;;10381464;28;20037;-68
2022/07/23 05:31:59;;;;;;;7.35;3.50;;;22.90;64.40;;;;;;10390854;28;20032;-63
2022/07/23 05:37:00;;;;;;;7.05;4.28;;;22.90;64.10;;;;;;10366079;28;20389;-65
2022/07/23 05:42:00;;;;;;;11.48;4.00;;;23.00;64.00;;;;;;10349507;28;20132;-68
2022/07/23 05:47:02;;;;;;;9.85;3.83;;;22.90;64.00;;;;;;10368723;28;20095;-69
2022/07/23 05:52:06;;;;;;;12.05;3.85;;;23.00;64.20;;;;;;10379214;28;20075;-66
2022/07/23 05:57:07;;;;;;;11.13;3.55;;;22.90;64.20;;;;;;10386862;28;20428;-69
2022/07/23 06:02:08;;;;;;;8.85;2.95;;;22.90;64.30;;;;;;10371786;28;20022;-64
2022/07/23 06:07:08;;;;;;;16.92;4.18;;;22.90;64.40;;;;;;10365259;28;20026;-64
2022/07/23 06:12:09;;;;;;;7.90;3.75;;;23.00;64.40;;;;;;10392582;28;20033;-67
2022/07/23 06:17:10;;;;;;;14.10;3.17;;;23.00;64.60;;;;;;10399814;28;20125;-66
2022/07/23 06:22:10;;;;;;;11.15;3.83;;;23.00;64.40;;;;;;10397870;28;20030;-66
2022/07/23 06:27:11;;;;;;;9.18;3.30;;;22.90;64.40;;;;;;10371542;28;20033;-66
2022/07/23 06:32:12;;;;;;;5.80;2.10;;;22.80;64.40;;;;;;10372815;28;20036;-67
2022/07/23 06:37:12;;;;;;;5.45;2.35;;;22.80;64.30;;;;;;10367044;28;20113;-66
2022/07/23 06:42:14;;;;;;;5.22;1.95;;;22.80;64.30;;;;;;10378875;28;20102;-66
2022/07/23 06:47:15;;;;;;;5.53;2.40;;;22.80;64.20;;;;;;10398181;28;20460;-67
2022/07/23 06:52:16;;;;;;;8.82;2.22;;;22.80;64.30;;;;;;10388939;28;20132;-66
2022/07/23 06:57:16;;;;;;;8.35;2.10;;;22.70;64.20;;;;;;10371837;28;20040;-66
2022/07/23 07:02:17;;;;;;;8.30;2.28;;;22.70;64.20;;;;;;10381544;28;20113;-66
2022/07/23 07:07:18;;;;;;;3.10;1.40;;;22.70;64.20;;;;;;10385534;28;20033;-65
2022/07/23 07:12:18;;;;;;;4.18;2.35;;;22.70;64.20;;;;;;10398668;28;20060;-65
2022/07/23 07:17:19;;;;;;;6.25;1.75;;;22.70;64.20;;;;;;10409192;28;20030;-66
2022/07/23 07:22:20;;;;;;;6.07;2.40;;;22.70;64.00;;;;;;10373666;28;20034;-67
2022/07/23 07:27:20;;;;;;;8.48;2.40;;;22.70;64.00;;;;;;10378554;28;20026;-66
2022/07/23 07:32:21;;;;;;;8.32;2.20;;;22.70;64.00;;;;;;10404492;28;20563;-66
2022/07/23 07:37:22;;;;;;;4.93;1.73;;;22.80;64.00;;;;;;10396494;28;20117;-67
2022/07/23 07:42:23;;;;;;;4.85;2.00;;;22.80;64.00;;;;;;10400314;28;20046;-65
2022/07/23 07:47:23;;;;;;;12.60;2.55;;;22.80;64.00;;;;;;10377444;28;20079;-65
2022/07/23 07:52:24;;;;;;;13.18;3.33;;;22.80;63.90;;;;;;10407837;28;20068;-67
2022/07/23 07:57:25;;;;;;;12.45;2.75;;;22.80;63.90;;;;;;10398344;28;20129;-49
2022/07/23 08:02:25;;;;;;;25.05;3.50;;;22.80;64.10;;;;;;10374897;28;20128;-51
2022/07/23 08:07:26;;;;;;;22.20;3.90;;;22.80;64.70;;;;;;10388152;28;20034;-52
2022/07/23 08:12:27;;;;;;;19.30;3.78;;;22.70;64.80;;;;;;10393883;28;20125;-52
2022/07/23 08:17:27;;;;;;;20.05;3.05;;;22.70;64.90;;;;;;10380512;28;20042;-49
2022/07/23 08:22:49;;;;;;;25.83;2.97;;;22.80;65.10;;;;;;10379829;28;20113;-51
2022/07/23 08:27:51;;;;;;;25.63;3.97;;;22.80;64.90;;;;;;10374973;28;20061;-52
2022/07/23 08:33:02;;;;;;;18.27;3.53;;;22.80;64.90;;;;;;10396173;28;20087;-52
2022/07/23 08:38:09;;;;;;;23.90;3.72;;;22.80;64.90;;;;;;10359326;28;20513;-53
2022/07/23 08:43:14;;;;;;;38.15;7.20;;;22.80;65.20;;;;;;10381640;28;20042;-51
2022/07/23 08:48:18;;;;;;;32.92;7.13;;;22.80;65.20;;;;;;10381018;28;20034;-56
2022/07/23 08:53:21;;;;;;;38.80;8.15;;;22.90;65.10;;;;;;10367697;28;20616;-57
2022/07/23 08:58:22;;;;;;;43.85;8.52;;;22.90;66.40;;;;;;10370514;28;20109;-56
2022/07/23 09:03:29;;;;;;;46.45;10.55;;;22.90;65.00;;;;;;10367511;28;20021;-53
2022/07/23 09:08:42;;;;;;;41.20;9.93;;;22.90;65.10;;;;;;10366690;28;20033;-51
2022/07/23 09:13:58;;;;;;;43.65;10.88;;;22.90;64.90;;;;;;10368513;28;20056;-53
2022/07/23 09:19:01;;;;;;;36.75;10.07;;;22.90;64.80;;;;;;10384621;28;20083;-52
2022/07/23 09:24:15;;;;;;;46.03;11.25;;;22.90;64.80;;;;;;10394575;28;20512;-51
2022/07/23 09:29:25;;;;;;;40.40;11.25;;;22.90;64.70;;;;;;10405998;28;20129;-51
2022/07/23 09:34:35;;;;;;;43.38;11.32;;;22.90;64.70;;;;;;10363696;28;20413;-53
2022/07/23 09:39:36;;;;;;;44.75;11.80;;;22.90;64.70;;;;;;10389456;28;20034;-54
2022/07/23 09:44:42;;;;;;;47.53;13.32;;;22.90;64.70;;;;;;10368083;28;20100;-50
2022/07/23 09:50:08;;;;;;;45.17;12.02;;;22.90;64.60;;;;;;10404209;28;20107;-53
2022/07/23 09:55:09;;;;;;;38.97;9.70;;;22.90;64.50;;;;;;10380162;28;20041;-53
2022/07/23 10:00:13;;;;;;;50.88;13.57;;;22.90;64.60;;;;;;10376495;28;20034;-53
2022/07/23 10:05:14;;;;;;;51.30;12.30;;;22.90;64.10;;;;;;10374657;28;20125;-54
2022/07/23 10:10:16;;;;;;;41.40;10.15;;;22.90;64.10;;;;;;10382227;28;20038;-57
2022/07/23 10:15:17;;;;;;;37.72;10.20;;;22.90;63.30;;;;;;10399729;28;20101;-56
2022/07/23 10:20:17;;;;;;;42.22;9.82;;;22.90;62.90;;;;;;10374764;28;20022;-54
2022/07/23 10:25:31;;;;;;;28.45;7.28;;;22.90;62.80;;;;;;10380514;28;20393;-54
2022/07/23 10:31:00;;;;;;;22.27;7.53;;;22.90;62.50;;;;;;10384590;28;20052;-55
2022/07/23 10:36:31;;;;;;;21.52;5.28;;;23.00;62.10;;;;;;10388967;28;20045;-54
2022/07/23 10:41:40;;;;;;;18.70;5.63;;;22.90;61.30;;;;;;10406195;28;20145;-54
2022/07/23 10:52:22;;;;;;;9.27;3.10;;;22.90;59.90;;;;;;10375981;28;20041;-54
2022/07/23 10:57:27;;;;;;;10.52;3.03;;;23.00;59.80;;;;;;10419879;28;20083;-58
2022/07/23 11:02:30;;;;;;;9.40;3.10;;;23.00;59.70;;;;;;10408046;28;20853;-54
2022/07/23 11:07:30;;;;;;;8.65;2.63;;;23.00;59.50;;;;;;10394731;28;20100;-55
2022/07/23 11:12:33;;;;;;;9.70;2.90;;;23.00;59.50;;;;;;10389697;28;20404;-52
2022/07/23 11:17:39;;;;;;;8.73;3.05;;;23.00;59.20;;;;;;10396976;28;20046;-54
2022/07/23 11:22:46;;;;;;;10.35;2.47;;;23.00;58.80;;;;;;10389043;28;20030;-54
2022/07/23 11:27:49;;;;;;;8.57;2.70;;;23.00;58.50;;;;;;10399267;28;20082;-53
2022/07/23 11:32:50;;;;;;;18.08;4.55;;;23.00;58.10;;;;;;10401600;28;20907;-51
2022/07/23 11:37:58;;;;;;;11.40;3.78;;;23.00;58.40;;;;;;10374070;28;20037;-55
2022/07/23 11:43:06;;;;;;;13.40;3.58;;;23.00;58.20;;;;;;10394343;28;20119;-52
2022/07/23 11:48:15;;;;;;;6.63;3.13;;;23.10;57.40;;;;;;10414401;28;20044;-53
2022/07/23 11:53:32;;;;;;;12.30;3.50;;;23.00;56.50;;;;;;10392638;28;20100;-54
2022/07/23 11:58:33;;;;;;;4.03;2.20;;;23.00;56.50;;;;;;10395207;28;20031;-53
2022/07/23 12:03:33;;;;;;;6.15;2.22;;;23.00;56.40;;;;;;10393382;28;20033;-54
2022/07/23 12:08:41;;;;;;;7.13;2.72;;;23.00;56.10;;;;;;10409833;28;20029;-53
2022/07/23 12:13:42;;;;;;;3.78;1.98;;;23.00;55.90;;;;;;10385762;28;20044;-50
2022/07/23 12:18:43;;;;;;;5.10;2.70;;;23.00;55.70;;;;;;10400503;28;20033;-50
2022/07/23 12:23:48;;;;;;;3.95;2.60;;;23.00;55.90;;;;;;10378094;28;20645;-50
2022/07/23 12:28:53;;;;;;;4.30;2.30;;;23.00;55.90;;;;;;10395723;28;20124;-50
2022/07/23 12:33:53;;;;;;;5.13;2.63;;;23.00;55.80;;;;;;10400981;28;20552;-52
2022/07/23 12:38:54;;;;;;;4.80;2.80;;;23.00;55.80;;;;;;10388669;28;20159;-50
2022/07/23 12:43:55;;;;;;;3.70;2.50;;;23.00;56.00;;;;;;10369132;28;20045;-52
2022/07/23 12:48:56;;;;;;;5.55;2.55;;;23.10;56.30;;;;;;10394023;28;20129;-51
2022/07/23 12:54:01;;;;;;;5.00;2.90;;;23.00;55.50;;;;;;10409327;28;20417;-50
2022/07/23 12:59:16;;;;;;;5.00;2.22;;;23.00;55.60;;;;;;10393607;28;20369;-52
2022/07/23 13:04:24;;;;;;;6.95;2.65;;;23.10;55.30;;;;;;10389844;28;20025;-49
2022/07/23 13:09:28;;;;;;;4.15;2.40;;;23.10;55.50;;;;;;10368433;28;20061;-50
2022/07/23 13:14:29;;;;;;;3.65;2.38;;;23.10;55.70;;;;;;10366923;28;20092;-50
2022/07/23 13:19:29;;;;;;;4.07;2.50;;;23.10;56.00;;;;;;10373367;28;20116;-49
2022/07/23 13:24:30;;;;;;;4.05;2.38;;;23.10;55.90;;;;;;10379882;28;20029;-48
2022/07/23 13:29:31;;;;;;;4.07;3.20;;;23.10;55.90;;;;;;10382691;28;20045;-51
2022/07/23 13:34:32;;;;;;;3.88;3.15;;;23.10;56.10;;;;;;10367638;28;20452;-51
2022/07/23 13:39:33;;;;;;;7.63;2.88;;;23.10;56.40;;;;;;10366952;28;20108;-53
2022/07/23 13:44:34;;;;;;;7.00;2.85;;;23.10;56.20;;;;;;10367384;28;20164;-52
2022/07/23 13:49:34;;;;;;;4.90;2.50;;;23.10;56.40;;;;;;10367088;28;20033;-51
2022/07/23 13:54:36;;;;;;;5.25;3.05;;;23.10;56.50;;;;;;10373236;28;20120;-49
2022/07/23 13:59:36;;;;;;;10.40;3.63;;;23.10;56.80;;;;;;10380384;28;20029;-49
2022/07/23 14:04:37;;;;;;;4.82;2.97;;;23.10;57.00;;;;;;10365419;28;20026;-49
2022/07/23 14:09:38;;;;;;;5.45;3.03;;;23.10;57.40;;;;;;10368380;28;20612;-50
2022/07/23 14:14:39;;;;;;;16.73;4.47;;;23.10;57.50;;;;;;10379887;28;20052;-50
2022/07/23 14:19:40;;;;;;;7.75;3.33;;;23.10;58.10;;;;;;10393089;28;20385;-50
2022/07/23 14:24:41;;;;;;;8.90;3.55;;;23.10;57.60;;;;;;10392991;28;20775;-51
2022/07/23 14:29:42;;;;;;;12.55;3.88;;;23.10;57.40;;;;;;10392371;28;20045;-54
2022/07/23 14:34:42;;;;;;;18.52;3.80;;;23.10;57.60;;;;;;10400318;28;20025;-53
2022/07/23 14:39:45;;;;;;;8.88;3.53;;;23.10;57.90;;;;;;10392721;28;20037;-54
2022/07/23 14:44:46;;;;;;;11.93;3.55;;;23.10;58.30;;;;;;10399050;28;20049;-54
2022/07/23 14:49:47;;;;;;;10.90;3.20;;;23.10;58.50;;;;;;10393795;28;20444;-55
2022/07/23 14:54:47;;;;;;;12.82;5.22;;;23.10;59.10;;;;;;10376400;28;20075;-54
2022/07/23 14:59:48;;;;;;;15.27;4.20;;;23.10;59.30;;;;;;10395202;28;20089;-53
2022/07/23 15:04:49;;;;;;;12.88;3.50;;;23.10;59.30;;;;;;10384348;28;20021;-52
2022/07/23 15:09:49;;;;;;;11.02;3.97;;;23.10;59.20;;;;;;10396834;28;20775;-53
2022/07/23 15:14:50;;;;;;;6.03;3.97;;;23.10;59.50;;;;;;10398383;28;20343;-54
2022/07/23 15:19:51;;;;;;;10.82;5.97;;;23.30;58.90;;;;;;10394544;28;20080;-52
2022/07/23 15:24:52;;;;;;;7.68;3.92;;;23.40;59.00;;;;;;10377581;28;20831;-48
2022/07/23 15:29:52;;;;;;;10.18;3.33;;;23.40;63.10;;;;;;10386760;28;20056;-49
2022/07/23 15:34:54;;;;;;;5.55;2.97;;;23.60;61.30;;;;;;10395460;28;20026;-50
2022/07/23 15:39:55;;;;;;;8.25;4.03;;;23.70;61.10;;;;;;10387911;28;20068;-50
2022/07/23 15:44:55;;;;;;;8.55;4.13;;;23.80;59.70;;;;;;10387001;28;20038;-51
2022/07/23 15:49:56;;;;;;;21.55;13.88;;;23.80;58.10;;;;;;10374917;28;20458;-49
2022/07/23 15:54:57;;;;;;;15.70;9.02;;;23.80;60.20;;;;;;10385751;28;20503;-48
2022/07/23 15:59:58;;;;;;;9.07;6.15;;;23.80;61.60;;;;;;10404187;28;20037;-50
2022/07/23 16:04:59;;;;;;;10.52;6.40;;;23.90;60.90;;;;;;10377005;28;20377;-52
2022/07/23 16:09:59;;;;;;;6.90;4.72;;;24.00;63.10;;;;;;10382164;28;20060;-50
2022/07/23 16:15:00;;;;;;;8.07;5.00;;;24.10;60.50;;;;;;10369502;28;20101;-51
2022/07/23 16:20:01;;;;;;;5.38;4.05;;;23.90;60.00;;;;;;10368775;28;20037;-52
2022/07/23 16:25:04;;;;;;;5.75;4.30;;;23.60;60.00;;;;;;10387502;28;20071;-50
2022/07/23 16:30:08;;;;;;;6.45;3.70;;;23.50;59.00;;;;;;10382901;28;20038;-50
2022/07/23 16:35:09;;;;;;;10.95;3.72;;;23.50;58.50;;;;;;10382457;28;20347;-49
2022/07/23 16:40:11;;;;;;;5.50;3.15;;;23.50;58.10;;;;;;10368727;28;20088;-49
2022/07/23 16:45:12;;;;;;;6.25;3.70;;;23.50;57.60;;;;;;10379627;28;20048;-55
2022/07/23 16:50:14;;;;;;;5.72;3.45;;;23.60;57.90;;;;;;10409635;28;20397;-50
2022/07/23 16:55:14;;;;;;;5.90;3.38;;;23.60;58.10;;;;;;10409101;28;20436;-49
2022/07/23 17:00:16;;;;;;;5.88;3.47;;;23.50;57.50;;;;;;10388835;28;20119;-48
2022/07/23 17:05:16;;;;;;;4.03;3.10;;;23.40;57.00;;;;;;10394530;28;20029;-50
2022/07/23 17:10:17;;;;;;;5.20;2.70;;;23.40;57.00;;;;;;10395455;28;20033;-54
2022/07/23 17:15:18;;;;;;;4.85;2.92;;;23.50;57.90;;;;;;10383398;28;20041;-50
2022/07/23 17:20:19;;;;;;;8.35;3.35;;;23.50;57.00;;;;;;10385265;28;20048;-56
2022/07/23 17:25:19;;;;;;;4.80;3.65;;;23.50;56.70;;;;;;10386724;28;20038;-53
2022/07/23 17:30:20;;;;;;;5.10;2.95;;;23.50;57.40;;;;;;10388389;28;20033;-54
2022/07/23 17:35:21;;;;;;;9.85;4.30;;;23.40;57.50;;;;;;10379367;28;20069;-54
2022/07/23 17:40:23;;;;;;;12.85;4.00;;;23.40;57.70;;;;;;10379548;28;20045;-54
2022/07/23 17:45:24;;;;;;;9.18;4.85;;;23.40;59.80;;;;;;10386172;28;20030;-54
2022/07/23 17:50:25;;;;;;;10.52;3.92;;;23.40;59.00;;;;;;10386866;28;20115;-53
2022/07/23 17:55:26;;;;;;;6.72;3.63;;;23.50;59.00;;;;;;10393914;28;20116;-54
2022/07/23 18:00:31;;;;;;;10.43;3.50;;;23.40;58.80;;;;;;10386885;28;20044;-54
2022/07/23 18:05:32;;;;;;;7.05;3.30;;;23.50;58.50;;;;;;10392616;28;20488;-54
2022/07/23 18:10:34;;;;;;;6.60;3.60;;;23.40;58.10;;;;;;10398712;28;20044;-53
2022/07/23 18:15:35;;;;;;;5.47;4.72;;;23.40;58.00;;;;;;10402838;28;20128;-51
2022/07/23 18:20:36;;;;;;;8.45;5.25;;;23.40;57.90;;;;;;10397821;28;20033;-53
2022/07/23 18:25:37;;;;;;;6.60;3.85;;;23.40;58.30;;;;;;10386538;28;20034;-53
2022/07/23 18:30:38;;;;;;;5.20;3.90;;;23.60;57.60;;;;;;10408695;28;20029;-54
2022/07/23 18:35:39;;;;;;;4.88;3.00;;;23.50;57.80;;;;;;10386937;28;20033;-54
2022/07/23 18:40:40;;;;;;;4.97;3.13;;;23.50;58.20;;;;;;10414769;28;20084;-54
2022/07/23 18:45:40;;;;;;;7.53;3.53;;;23.40;58.40;;;;;;10414464;28;20109;-54
2022/07/23 18:50:43;;;;;;;5.90;3.70;;;23.40;58.50;;;;;;10403820;28;20033;-54
2022/07/23 18:55:44;;;;;;;6.75;3.92;;;23.40;58.70;;;;;;10373067;28;20120;-53
2022/07/23 19:00:45;;;;;;;4.03;3.15;;;23.40;58.90;;;;;;10371864;28;20026;-54
2022/07/23 19:05:45;;;;;;;4.65;3.72;;;23.40;59.00;;;;;;10399486;28;20112;-54
2022/07/23 19:10:46;;;;;;;5.38;3.42;;;23.40;58.90;;;;;;10395547;28;20013;-53
2022/07/23 19:15:47;;;;;;;3.63;2.90;;;23.40;58.90;;;;;;10412685;28;20041;-54
2022/07/23 19:20:48;;;;;;;3.42;2.55;;;23.30;58.90;;;;;;10398642;28;20029;-54
2022/07/23 19:25:49;;;;;;;4.32;2.75;;;23.30;59.10;;;;;;10410996;28;20132;-49
2022/07/23 19:30:50;;;;;;;9.48;3.78;;;23.40;59.30;;;;;;10393746;28;20068;-50
2022/07/23 19:35:50;;;;;;;5.95;3.55;;;23.30;59.40;;;;;;10385658;28;20034;-54
2022/07/23 19:40:51;;;;;;;9.95;3.78;;;23.30;59.50;;;;;;10389880;28;20167;-49
2022/07/23 19:45:52;;;;;;;4.57;3.30;;;23.30;59.60;;;;;;10376366;28;20527;-49
2022/07/23 19:50:54;;;;;;;4.20;2.92;;;23.30;60.40;;;;;;10373384;28;20362;-48
2022/07/23 19:55:55;;;;;;;5.10;3.15;;;23.40;59.80;;;;;;10376594;28;20087;-49
2022/07/23 20:00:55;;;;;;;5.15;3.22;;;23.30;59.80;;;;;;10378330;28;20091;-48
2022/07/23 20:05:56;;;;;;;3.90;2.75;;;23.40;60.00;;;;;;10371818;28;20029;-49
2022/07/23 20:10:57;;;;;;;5.53;3.50;;;23.40;60.00;;;;;;10377014;28;20026;-49
2022/07/23 20:15:58;;;;;;;4.32;2.72;;;23.40;60.10;;;;;;10394275;28;20033;-53
2022/07/23 20:21:00;;;;;;;3.70;2.95;;;23.40;60.10;;;;;;10389532;28;20062;-48
2022/07/23 20:26:01;;;;;;;5.13;3.42;;;23.40;60.10;;;;;;10377815;28;20030;-48
2022/07/23 20:31:03;;;;;;;5.00;3.13;;;23.40;60.20;;;;;;10384033;28;20025;-49
2022/07/23 20:36:04;;;;;;;5.32;3.00;;;23.40;60.20;;;;;;10382120;28;20037;-49
2022/07/23 20:41:05;;;;;;;8.30;3.33;;;23.40;60.30;;;;;;10371956;28;20045;-49
2022/07/23 20:46:06;;;;;;;4.00;3.03;;;23.40;60.40;;;;;;10379779;28;20045;-50
2022/07/23 20:51:06;;;;;;;6.25;3.00;;;23.40;60.40;;;;;;10378170;28;20030;-48
2022/07/23 20:56:07;;;;;;;3.60;3.15;;;23.40;60.50;;;;;;10386387;28;20113;-49
2022/07/23 21:01:08;;;;;;;4.88;2.47;;;23.40;60.50;;;;;;10374517;28;20084;-49
2022/07/23 21:06:09;;;;;;;4.65;3.22;;;23.40;60.50;;;;;;10372547;28;20048;-49
2022/07/23 21:11:10;;;;;;;5.78;3.20;;;23.40;60.60;;;;;;10369755;28;20030;-48
2022/07/23 21:16:11;;;;;;;4.38;3.00;;;23.40;60.60;;;;;;10381857;28;20034;-49
2022/07/23 21:21:12;;;;;;;4.85;3.25;;;23.40;60.60;;;;;;10387415;28;20121;-50
2022/07/23 21:26:15;;;;;;;5.43;3.28;;;23.40;60.70;;;;;;10410647;28;20564;-49
2022/07/23 21:31:15;;;;;;;4.95;3.10;;;23.40;60.90;;;;;;10400472;28;20044;-51
2022/07/23 21:36:16;;;;;;;4.40;3.55;;;23.40;60.90;;;;;;10380396;28;20041;-49
2022/07/23 21:41:17;;;;;;;5.38;3.08;;;23.40;60.90;;;;;;10393747;28;20056;-49
2022/07/23 21:46:18;;;;;;;3.10;2.50;;;23.40;60.90;;;;;;10374300;28;20759;-49
2022/07/23 21:51:19;;;;;;;3.42;2.67;;;23.40;60.90;;;;;;10374616;28;20040;-49
2022/07/23 21:56:20;;;;;;;2.88;1.90;;;23.40;60.90;;;;;;10405900;28;20377;-50
2022/07/23 22:01:20;;;;;;;3.13;2.22;;;23.40;60.90;;;;;;10385266;28;20025;-50
2022/07/23 22:06:21;;;;;;;3.35;2.40;;;23.40;60.90;;;;;;10375220;28;20052;-48
2022/07/23 22:11:22;;;;;;;4.20;2.63;;;23.40;60.90;;;;;;10375023;28;20026;-50
2022/07/23 22:16:23;;;;;;;3.00;2.47;;;23.30;60.90;;;;;;10374965;28;20474;-50
2022/07/23 22:21:23;;;;;;;4.03;2.92;;;23.40;61.00;;;;;;10389185;28;20021;-48
2022/07/23 22:26:24;;;;;;;7.07;2.75;;;23.40;60.90;;;;;;10404773;28;20029;-49
2022/07/23 22:31:25;;;;;;;3.47;2.70;;;23.40;60.90;;;;;;10388364;28;20034;-52
2022/07/23 22:36:25;;;;;;;2.97;2.35;;;23.40;60.90;;;;;;10374041;28;20045;-52
2022/07/23 22:41:26;;;;;;;3.20;2.58;;;23.40;61.00;;;;;;10386594;28;20380;-48
2022/07/23 22:46:27;;;;;;;4.53;3.10;;;23.40;61.00;;;;;;10414649;28;20033;-51
2022/07/23 22:51:28;;;;;;;3.05;2.50;;;23.30;60.90;;;;;;10413691;28;20052;-53
2022/07/23 22:56:28;;;;;;;3.83;2.38;;;23.30;60.90;;;;;;10412800;28;20036;-51
2022/07/23 23:01:29;;;;;;;3.63;3.10;;;23.30;60.80;;;;;;10414488;28;20499;-51
2022/07/23 23:06:30;;;;;;;3.05;2.65;;;23.30;60.90;;;;;;10412996;28;20037;-49
2022/07/23 23:11:30;;;;;;;4.15;2.97;;;23.30;60.90;;;;;;10393015;28;20053;-48
2022/07/23 23:16:31;;;;;;;3.85;3.15;;;23.30;60.90;;;;;;10372524;28;20026;-49
2022/07/23 23:21:32;;;;;;;3.38;2.80;;;23.30;61.50;;;;;;10388012;28;20112;-49
2022/07/23 23:26:33;;;;;;;4.82;2.60;;;23.30;60.90;;;;;;10411966;28;20509;-49
2022/07/23 23:31:34;;;;;;;3.95;2.72;;;23.30;60.90;;;;;;10394108;28;20080;-49
2022/07/23 23:36:35;;;;;;;3.75;3.10;;;23.30;60.90;;;;;;10372235;28;20030;-48
2022/07/23 23:41:35;;;;;;;3.97;3.00;;;23.30;60.90;;;;;;10395826;28;20070;-48
2022/07/23 23:46:36;;;;;;;3.60;2.70;;;23.30;60.90;;;;;;10371377;28;20025;-51
2022/07/23 23:51:40;;;;;;;3.92;3.08;;;23.20;60.80;;;;;;10369858;28;20091;-52
2022/07/23 23:56:41;;;;;;;3.95;3.08;;;23.30;61.00;;;;;;10369669;28;20038;-50
